createdAt,value
2018-12-31T00:00:08.855Z,8.20
2018-12-31T00:02:38.971Z,8.20
2018-12-31T00:05:08.687Z,8.20
2018-12-31T00:07:38.108Z,8.10
2018-12-31T00:10:07.724Z,8.10
2018-12-31T00:12:37.755Z,8.20
2018-12-31T00:15:07.840Z,8.20
2018-12-31T00:17:37.266Z,8.20
2018-12-31T00:20:06.800Z,8.20
2018-12-31T00:22:36.228Z,8.20
2018-12-31T00:25:05.783Z,8.20
2018-12-31T00:27:35.232Z,8.20
2018-12-31T00:30:06.078Z,8.20
2018-12-31T00:32:35.504Z,8.20
2018-12-31T00:35:06.173Z,8.20
2018-12-31T00:37:35.962Z,8.30
2018-12-31T00:40:06.197Z,8.30
2018-12-31T00:42:36.064Z,8.30
2018-12-31T00:45:06.316Z,8.30
2018-12-31T00:47:35.816Z,8.30
2018-12-31T00:50:06.004Z,8.30
2018-12-31T00:52:35.634Z,8.30
2018-12-31T00:55:05.552Z,8.30
2018-12-31T00:57:35.309Z,8.30
2018-12-31T01:00:05.869Z,8.30
2018-12-31T01:02:35.283Z,8.30
2018-12-31T01:05:10.188Z,8.30
2018-12-31T01:07:39.680Z,8.30
2018-12-31T01:10:09.170Z,8.30
2018-12-31T01:12:39.073Z,8.30
2018-12-31T01:15:08.840Z,8.40
2018-12-31T01:17:38.267Z,8.40
2018-12-31T01:20:07.779Z,8.30
2018-12-31T01:22:37.431Z,8.30
2018-12-31T01:25:07.137Z,8.30
2018-12-31T01:27:36.648Z,8.30
2018-12-31T01:30:07.543Z,8.40
2018-12-31T01:32:36.959Z,8.40
2018-12-31T01:35:07.522Z,8.40
2018-12-31T01:37:37.011Z,8.30
2018-12-31T01:40:07.272Z,8.30
2018-12-31T01:42:36.748Z,8.30
2018-12-31T01:45:06.244Z,8.20
2018-12-31T01:47:35.737Z,8.20
2018-12-31T01:50:06.001Z,8.30
2018-12-31T01:52:35.474Z,8.30
2018-12-31T01:55:05.336Z,8.30
2018-12-31T01:57:35.420Z,8.30
2018-12-31T02:00:06.920Z,8.30
2018-12-31T02:02:36.560Z,8.30
2018-12-31T02:05:06.543Z,8.40
2018-12-31T02:07:35.978Z,8.30
2018-12-31T02:10:06.800Z,8.40
2018-12-31T02:12:37.065Z,8.40
2018-12-31T02:15:07.028Z,8.40
2018-12-31T02:17:36.668Z,8.40
2018-12-31T02:20:06.355Z,8.40
2018-12-31T02:22:35.852Z,8.40
2018-12-31T02:25:05.507Z,8.30
2018-12-31T02:27:35.296Z,8.30
2018-12-31T02:30:05.836Z,8.20
2018-12-31T02:32:35.413Z,8.20
2018-12-31T02:35:05.457Z,8.20
2018-12-31T02:37:34.955Z,8.20
2018-12-31T02:40:04.903Z,8.20
2018-12-31T02:42:34.433Z,8.20
2018-12-31T02:45:03.919Z,8.30
2018-12-31T02:47:33.343Z,8.40
2018-12-31T02:50:02.901Z,8.40
2018-12-31T02:52:32.323Z,8.40
2018-12-31T02:55:01.910Z,8.40
2018-12-31T02:57:31.868Z,8.40
2018-12-31T03:00:01.535Z,8.40
2018-12-31T03:02:31.400Z,8.40
2018-12-31T03:05:00.964Z,8.40
2018-12-31T03:07:30.443Z,8.30
2018-12-31T03:09:59.866Z,8.30
2018-12-31T03:12:29.779Z,8.30
2018-12-31T03:14:59.268Z,8.30
2018-12-31T03:17:28.767Z,8.30
2018-12-31T03:19:58.733Z,8.30
2018-12-31T03:22:28.228Z,8.30
2018-12-31T03:24:57.684Z,8.40
2018-12-31T03:27:27.128Z,8.40
2018-12-31T03:29:56.549Z,8.30
2018-12-31T03:32:25.993Z,8.20
2018-12-31T03:34:55.664Z,8.20
2018-12-31T03:37:25.084Z,8.20
2018-12-31T03:39:54.582Z,8.30
2018-12-31T03:42:24.292Z,8.40
2018-12-31T03:44:53.768Z,8.40
2018-12-31T03:47:23.194Z,8.50
2018-12-31T03:49:52.647Z,8.60
2018-12-31T03:52:22.084Z,8.50
2018-12-31T03:54:51.577Z,8.50
2018-12-31T03:57:21.036Z,8.50
2018-12-31T03:59:50.796Z,8.50
2018-12-31T04:02:20.587Z,8.60
2018-12-31T04:04:50.373Z,8.70
2018-12-31T04:07:19.859Z,8.80
2018-12-31T04:09:49.348Z,8.70
2018-12-31T04:12:18.791Z,8.60
2018-12-31T04:14:48.217Z,8.60
2018-12-31T04:17:17.712Z,8.60
2018-12-31T04:19:47.228Z,8.60
2018-12-31T04:22:17.270Z,8.60
2018-12-31T04:24:47.057Z,8.60
2018-12-31T04:27:17.180Z,8.60
2018-12-31T04:29:46.599Z,8.50
2018-12-31T04:32:16.183Z,8.50
2018-12-31T04:34:45.634Z,8.50
2018-12-31T04:37:15.072Z,8.50
2018-12-31T04:39:44.561Z,8.60
2018-12-31T04:42:14.477Z,8.60
2018-12-31T04:44:44.197Z,8.50
2018-12-31T04:47:13.635Z,8.70
2018-12-31T04:49:43.622Z,8.80
2018-12-31T04:52:13.115Z,8.80
2018-12-31T04:54:42.623Z,8.80
2018-12-31T04:57:12.279Z,8.70
2018-12-31T04:59:41.799Z,8.70
2018-12-31T05:02:11.313Z,8.70
2018-12-31T05:04:40.833Z,8.70
2018-12-31T05:07:10.326Z,8.70
2018-12-31T05:09:39.824Z,8.70
2018-12-31T05:12:09.776Z,8.60
2018-12-31T05:14:39.263Z,8.60
2018-12-31T05:17:08.697Z,8.60
2018-12-31T05:19:38.216Z,8.60
2018-12-31T05:22:07.639Z,8.60
2018-12-31T05:24:37.432Z,8.60
2018-12-31T05:27:06.885Z,8.50
2018-12-31T05:29:36.367Z,8.60
2018-12-31T05:32:05.791Z,8.60
2018-12-31T05:34:35.300Z,8.60
2018-12-31T05:37:04.747Z,8.50
2018-12-31T05:39:34.180Z,8.50
2018-12-31T05:42:03.647Z,8.50
2018-12-31T05:44:33.086Z,8.50
2018-12-31T05:47:02.569Z,8.50
2018-12-31T05:49:32.029Z,8.50
2018-12-31T05:52:01.516Z,8.40
2018-12-31T05:54:30.935Z,8.40
2018-12-31T05:57:00.786Z,8.40
2018-12-31T05:59:30.283Z,8.40
2018-12-31T06:02:00.017Z,8.40
2018-12-31T06:04:29.755Z,8.40
2018-12-31T06:06:59.180Z,8.40
2018-12-31T06:09:29.088Z,8.40
2018-12-31T06:11:58.611Z,8.50
2018-12-31T06:14:28.036Z,8.60
2018-12-31T06:16:57.920Z,8.70
2018-12-31T06:19:28.316Z,8.50
2018-12-31T06:21:58.039Z,8.50
2018-12-31T06:24:27.764Z,8.50
2018-12-31T06:26:57.701Z,8.40
2018-12-31T06:29:27.175Z,8.50
2018-12-31T06:31:56.611Z,8.50
2018-12-31T06:34:26.239Z,8.50
2018-12-31T06:36:55.833Z,8.70
2018-12-31T06:39:25.275Z,8.70
2018-12-31T06:41:55.056Z,8.80
2018-12-31T06:44:24.771Z,8.80
2018-12-31T06:46:55.902Z,8.80
2018-12-31T06:49:44.816Z,8.80
2018-12-31T06:52:14.244Z,8.80
2018-12-31T06:54:43.670Z,8.80
2018-12-31T06:57:13.599Z,8.70
2018-12-31T06:59:43.102Z,8.60
2018-12-31T07:02:12.592Z,8.60
2018-12-31T07:04:42.360Z,8.60
2018-12-31T07:07:11.780Z,8.70
2018-12-31T07:09:41.271Z,8.60
2018-12-31T07:12:11.284Z,8.60
2018-12-31T07:14:40.708Z,8.60
2018-12-31T07:17:10.528Z,8.60
2018-12-31T07:19:40.516Z,8.60
2018-12-31T07:22:10.314Z,8.60
2018-12-31T07:24:39.739Z,8.60
2018-12-31T07:27:09.219Z,8.60
2018-12-31T07:29:39.116Z,8.70
2018-12-31T07:32:08.995Z,8.70
2018-12-31T07:34:38.509Z,8.80
2018-12-31T07:37:08.067Z,8.80
2018-12-31T07:39:37.620Z,8.80
2018-12-31T07:42:07.808Z,8.80
2018-12-31T07:44:37.516Z,8.70
2018-12-31T07:47:06.931Z,8.70
2018-12-31T07:49:36.391Z,8.70
2018-12-31T07:52:06.719Z,8.80
2018-12-31T07:54:36.399Z,8.90
2018-12-31T07:57:05.927Z,8.80
2018-12-31T07:59:35.416Z,8.90
2018-12-31T08:02:04.833Z,8.90
2018-12-31T08:04:34.546Z,9.00
2018-12-31T08:07:04.099Z,9.00
2018-12-31T08:09:33.600Z,9.00
2018-12-31T08:12:04.586Z,9.00
2018-12-31T08:14:34.014Z,8.90
2018-12-31T08:17:03.839Z,9.00
2018-12-31T08:19:33.287Z,9.00
2018-12-31T08:22:02.868Z,9.00
2018-12-31T08:24:32.684Z,9.10
2018-12-31T08:27:03.136Z,9.10
2018-12-31T08:29:32.624Z,9.10
2018-12-31T08:32:02.758Z,9.10
2018-12-31T08:34:32.648Z,9.10
2018-12-31T08:37:02.564Z,9.10
2018-12-31T08:39:32.004Z,9.10
2018-12-31T08:42:01.508Z,9.10
2018-12-31T08:44:30.996Z,9.10
2018-12-31T08:47:00.411Z,9.00
2018-12-31T08:49:30.257Z,9.10
2018-12-31T08:51:59.849Z,9.00
2018-12-31T08:54:29.656Z,9.00
2018-12-31T08:56:59.160Z,9.10
2018-12-31T08:59:30.807Z,9.10
2018-12-31T09:02:01.559Z,9.10
2018-12-31T09:04:31.583Z,9.20
2018-12-31T09:07:01.007Z,9.20
2018-12-31T09:09:30.528Z,9.20
2018-12-31T09:12:00.040Z,9.20
2018-12-31T09:14:29.599Z,9.20
2018-12-31T09:16:59.401Z,9.30
2018-12-31T09:19:28.920Z,9.30
2018-12-31T09:21:58.344Z,9.30
2018-12-31T09:24:27.765Z,9.30
2018-12-31T09:26:57.443Z,9.30
2018-12-31T09:29:26.868Z,9.40
2018-12-31T09:31:56.337Z,9.40
2018-12-31T09:34:25.879Z,9.40
2018-12-31T09:36:55.296Z,9.40
2018-12-31T09:39:24.711Z,9.30
2018-12-31T09:41:54.171Z,9.30
2018-12-31T09:44:24.038Z,9.30
2018-12-31T09:46:53.688Z,9.30
2018-12-31T09:49:23.339Z,9.30
2018-12-31T09:51:55.314Z,9.30
2018-12-31T09:54:24.879Z,9.30
2018-12-31T09:56:55.044Z,9.30
2018-12-31T09:59:24.857Z,9.30
2018-12-31T10:01:54.499Z,9.40
2018-12-31T10:04:24.336Z,9.40
2018-12-31T10:06:53.831Z,9.50
2018-12-31T10:09:23.508Z,9.50
2018-12-31T10:11:53.409Z,9.50
2018-12-31T10:14:22.828Z,9.60
2018-12-31T10:16:52.556Z,9.60
2018-12-31T10:19:22.071Z,9.70
2018-12-31T10:21:51.564Z,9.80
2018-12-31T10:24:21.038Z,9.80
2018-12-31T10:26:50.791Z,9.80
2018-12-31T10:29:20.897Z,9.90
2018-12-31T10:31:50.997Z,9.90
2018-12-31T10:34:20.775Z,9.90
2018-12-31T10:36:50.359Z,10.00
2018-12-31T10:39:19.811Z,10.00
2018-12-31T10:41:49.335Z,10.00
2018-12-31T10:44:18.880Z,10.10
2018-12-31T10:46:48.579Z,10.20
2018-12-31T10:49:18.268Z,10.10
2018-12-31T10:51:47.787Z,10.20
2018-12-31T10:54:17.259Z,10.30
2018-12-31T10:56:46.866Z,10.40
2018-12-31T10:59:16.295Z,10.50
2018-12-31T11:01:46.780Z,10.60
2018-12-31T11:04:16.234Z,10.60
2018-12-31T11:06:45.667Z,10.70
2018-12-31T11:09:15.179Z,10.80
2018-12-31T11:11:45.289Z,10.80
2018-12-31T11:14:15.294Z,10.80
2018-12-31T11:16:45.270Z,10.80
2018-12-31T11:19:14.801Z,10.80
2018-12-31T11:21:44.612Z,10.80
2018-12-31T11:24:14.225Z,10.80
2018-12-31T11:26:45.380Z,10.80
2018-12-31T11:29:15.815Z,10.80
2018-12-31T11:31:45.245Z,10.80
2018-12-31T11:34:14.835Z,10.70
2018-12-31T11:36:52.902Z,10.80
2018-12-31T11:39:22.481Z,10.70
2018-12-31T11:41:51.996Z,10.70
2018-12-31T11:44:22.389Z,10.70
2018-12-31T11:46:52.401Z,10.70
2018-12-31T11:49:21.835Z,10.60
2018-12-31T11:51:51.568Z,10.60
2018-12-31T11:54:21.524Z,10.70
2018-12-31T11:56:51.593Z,10.70
2018-12-31T11:59:21.200Z,10.60
2018-12-31T12:01:50.763Z,10.60
2018-12-31T12:04:20.276Z,10.70
2018-12-31T12:06:49.897Z,10.80
2018-12-31T12:09:19.405Z,10.90
2018-12-31T12:11:49.027Z,11.10
2018-12-31T12:14:18.536Z,11.20
2018-12-31T12:16:48.180Z,11.20
2018-12-31T12:19:17.679Z,11.20
2018-12-31T12:21:47.184Z,11.20
2018-12-31T12:24:36.181Z,11.20
2018-12-31T12:27:06.917Z,11.20
2018-12-31T12:29:36.425Z,11.10
2018-12-31T12:32:06.541Z,11.10
2018-12-31T12:34:36.425Z,11.00
2018-12-31T12:37:06.756Z,11.10
2018-12-31T12:39:36.211Z,11.00
2018-12-31T12:42:05.635Z,11.00
2018-12-31T12:44:35.467Z,11.00
2018-12-31T12:47:05.029Z,11.00
2018-12-31T12:49:36.071Z,11.00
2018-12-31T12:52:06.112Z,11.00
2018-12-31T12:54:36.086Z,11.10
2018-12-31T12:57:05.599Z,11.00
2018-12-31T12:59:35.353Z,10.90
2018-12-31T13:02:05.696Z,10.90
2018-12-31T13:04:35.331Z,11.00
2018-12-31T13:07:05.017Z,10.90
2018-12-31T13:09:35.272Z,10.90
2018-12-31T13:12:04.823Z,11.00
2018-12-31T13:14:37.385Z,11.00
2018-12-31T13:17:07.168Z,11.00
2018-12-31T13:19:36.753Z,10.90
2018-12-31T13:22:06.285Z,10.90
2018-12-31T13:24:36.110Z,10.90
2018-12-31T13:27:07.649Z,10.90
2018-12-31T13:29:37.112Z,10.90
2018-12-31T13:32:06.775Z,10.90
2018-12-31T13:34:36.925Z,10.90
2018-12-31T13:37:06.569Z,11.00
2018-12-31T13:39:36.507Z,11.10
2018-12-31T13:42:06.219Z,11.10
2018-12-31T13:44:35.891Z,11.10
2018-12-31T13:47:05.653Z,11.10
2018-12-31T13:49:35.149Z,11.10
2018-12-31T13:52:04.673Z,11.10
2018-12-31T13:54:34.649Z,11.10
2018-12-31T13:57:04.244Z,11.10
2018-12-31T13:59:34.778Z,11.10
2018-12-31T14:02:05.001Z,11.10
2018-12-31T14:04:35.774Z,11.10
2018-12-31T14:07:05.554Z,11.10
2018-12-31T14:09:35.092Z,11.10
2018-12-31T14:12:04.894Z,11.00
2018-12-31T14:14:40.820Z,11.00
2018-12-31T14:17:10.317Z,11.00
2018-12-31T14:19:44.526Z,11.00
2018-12-31T14:22:14.492Z,11.00
2018-12-31T14:24:44.381Z,11.00
2018-12-31T14:27:13.884Z,10.90
2018-12-31T14:29:43.638Z,10.90
2018-12-31T14:32:13.918Z,10.90
2018-12-31T14:35:03.425Z,10.90
2018-12-31T14:37:33.086Z,10.80
2018-12-31T14:40:02.789Z,10.70
2018-12-31T14:42:32.550Z,10.70
2018-12-31T14:45:02.061Z,10.70
2018-12-31T14:47:31.856Z,10.70
2018-12-31T14:50:03.016Z,10.60
2018-12-31T14:52:33.510Z,10.70
2018-12-31T14:55:02.952Z,10.60
2018-12-31T14:57:32.480Z,10.60
2018-12-31T15:00:01.904Z,10.70
2018-12-31T15:02:31.635Z,10.70
2018-12-31T15:05:02.097Z,10.70
2018-12-31T15:07:31.775Z,10.70
2018-12-31T15:10:01.281Z,10.60
2018-12-31T15:12:30.857Z,10.60
2018-12-31T15:15:00.438Z,10.60
2018-12-31T15:17:29.977Z,10.50
2018-12-31T15:19:59.544Z,10.50
2018-12-31T15:22:29.456Z,10.50
2018-12-31T15:24:58.979Z,10.50
2018-12-31T15:27:29.188Z,10.50
2018-12-31T15:29:58.697Z,10.50
2018-12-31T15:32:28.296Z,10.50
2018-12-31T15:34:57.952Z,10.60
2018-12-31T15:37:27.483Z,10.50
2018-12-31T15:39:57.287Z,10.50
2018-12-31T15:42:27.715Z,10.40
2018-12-31T15:44:57.521Z,10.40
2018-12-31T15:47:27.257Z,10.40
2018-12-31T15:49:57.192Z,10.40
2018-12-31T15:52:27.707Z,10.40
2018-12-31T15:54:57.208Z,10.40
2018-12-31T15:57:26.852Z,10.40
2018-12-31T15:59:56.347Z,10.40
2018-12-31T16:02:26.113Z,10.30
2018-12-31T16:04:55.711Z,10.30
2018-12-31T16:07:26.312Z,10.30
2018-12-31T16:09:56.180Z,10.30
2018-12-31T16:12:26.430Z,10.30
2018-12-31T16:14:55.943Z,10.40
2018-12-31T16:17:26.505Z,10.40
2018-12-31T16:19:56.447Z,10.30
2018-12-31T16:22:26.273Z,10.40
2018-12-31T16:24:55.847Z,10.40
2018-12-31T16:27:25.692Z,10.40
2018-12-31T16:29:55.618Z,10.50
2018-12-31T16:32:25.124Z,10.40
2018-12-31T16:34:54.824Z,10.40
2018-12-31T16:37:24.335Z,10.40
2018-12-31T16:39:54.167Z,10.40
2018-12-31T16:42:24.136Z,10.30
2018-12-31T16:44:54.061Z,10.30
2018-12-31T16:47:23.605Z,10.30
2018-12-31T16:49:53.252Z,10.30
2018-12-31T16:52:22.822Z,10.30
2018-12-31T16:54:52.684Z,10.20
2018-12-31T16:57:22.775Z,10.20
2018-12-31T16:59:52.303Z,10.20
2018-12-31T17:02:21.781Z,10.20
2018-12-31T17:04:51.311Z,10.20
2018-12-31T17:07:27.992Z,10.20
2018-12-31T17:09:51.995Z,10.20
2018-12-31T17:12:21.549Z,10.20
2018-12-31T17:14:51.052Z,10.20
2018-12-31T17:17:20.556Z,10.20
2018-12-31T17:19:50.187Z,10.20
2018-12-31T17:22:19.915Z,10.10
2018-12-31T17:24:49.499Z,10.20
2018-12-31T17:27:19.297Z,10.10
2018-12-31T17:29:48.966Z,10.10
2018-12-31T17:32:18.472Z,10.10
2018-12-31T17:34:48.022Z,10.10
2018-12-31T17:37:17.599Z,10.10
2018-12-31T17:39:47.320Z,10.00
2018-12-31T17:42:17.080Z,10.10
2018-12-31T17:44:46.579Z,10.10
2018-12-31T17:47:16.084Z,10.20
2018-12-31T17:49:45.612Z,10.20
2018-12-31T17:52:15.719Z,10.20
2018-12-31T17:54:45.224Z,10.20
2018-12-31T17:57:14.679Z,10.20
2018-12-31T17:59:44.394Z,10.20
2018-12-31T18:02:13.883Z,10.20
2018-12-31T18:04:44.091Z,10.20
2018-12-31T18:07:13.599Z,10.20
2018-12-31T18:09:43.093Z,10.20
2018-12-31T18:12:12.823Z,10.20
2018-12-31T18:14:42.332Z,10.20
2018-12-31T18:17:12.031Z,10.20
2018-12-31T18:19:43.766Z,10.10
2018-12-31T18:22:13.275Z,10.20
2018-12-31T18:24:42.776Z,10.20
2018-12-31T18:27:12.655Z,10.30
2018-12-31T18:29:42.164Z,10.30
2018-12-31T18:32:11.835Z,10.30
2018-12-31T18:34:41.440Z,10.30
2018-12-31T18:37:11.041Z,10.20
2018-12-31T18:39:41.231Z,10.20
2018-12-31T18:42:11.085Z,10.20
2018-12-31T18:44:40.595Z,10.20
2018-12-31T18:47:10.092Z,10.10
2018-12-31T18:49:40.320Z,10.10
2018-12-31T18:52:10.230Z,10.10
2018-12-31T18:54:40.074Z,10.20
2018-12-31T18:57:09.836Z,10.20
2018-12-31T18:59:39.556Z,10.20
2018-12-31T19:02:09.282Z,10.10
2018-12-31T19:04:39.387Z,10.10
2018-12-31T19:07:09.325Z,10.10
2018-12-31T19:09:38.824Z,10.10
2018-12-31T19:12:08.335Z,10.10
2018-12-31T19:14:37.840Z,10.10
2018-12-31T19:17:07.540Z,10.10
2018-12-31T19:19:37.088Z,10.10
2018-12-31T19:22:07.132Z,10.10
2018-12-31T19:24:36.690Z,10.10
2018-12-31T19:27:06.228Z,10.10
2018-12-31T19:29:35.888Z,10.10
2018-12-31T19:32:05.395Z,10.10
2018-12-31T19:34:35.004Z,10.20
2018-12-31T19:37:04.711Z,10.20
2018-12-31T19:39:34.140Z,10.20
2018-12-31T19:42:03.668Z,10.20
2018-12-31T19:44:33.648Z,10.10
2018-12-31T19:47:04.685Z,10.20
2018-12-31T19:49:34.216Z,10.10
2018-12-31T19:52:04.171Z,10.10
2018-12-31T19:54:33.676Z,10.10
2018-12-31T19:57:03.758Z,10.20
2018-12-31T19:59:33.633Z,10.10
2018-12-31T20:02:03.232Z,10.10
2018-12-31T20:04:32.761Z,10.10
2018-12-31T20:07:03.555Z,10.10
2018-12-31T20:09:33.188Z,10.10
2018-12-31T20:12:02.748Z,10.10
2018-12-31T20:14:32.852Z,10.20
2018-12-31T20:17:03.024Z,10.10
2018-12-31T20:19:38.506Z,10.10
2018-12-31T20:22:08.003Z,10.20
2018-12-31T20:24:37.712Z,10.20
2018-12-31T20:27:07.239Z,10.20
2018-12-31T20:29:36.940Z,10.20
2018-12-31T20:32:06.908Z,10.20
2018-12-31T20:34:36.720Z,10.20
2018-12-31T20:37:06.221Z,10.20
2018-12-31T20:39:35.903Z,10.20
2018-12-31T20:42:06.902Z,10.20
2018-12-31T20:44:36.507Z,10.20
2018-12-31T20:47:06.028Z,10.20
2018-12-31T20:49:36.684Z,10.20
2018-12-31T20:52:06.330Z,10.30
2018-12-31T20:54:36.300Z,10.20
2018-12-31T20:57:05.833Z,10.20
2018-12-31T20:59:35.348Z,10.20
2018-12-31T21:02:05.016Z,10.20
2018-12-31T21:04:34.584Z,10.10
2018-12-31T21:07:05.460Z,10.10
2018-12-31T21:09:35.304Z,10.10
2018-12-31T21:12:04.881Z,10.20
2018-12-31T21:14:34.667Z,10.20
2018-12-31T21:17:04.167Z,10.20
2018-12-31T21:19:34.403Z,10.20
2018-12-31T21:22:03.927Z,10.30
2018-12-31T21:24:33.419Z,10.30
2018-12-31T21:27:03.088Z,10.40
2018-12-31T21:29:32.547Z,10.40
2018-12-31T21:32:02.659Z,10.30
2018-12-31T21:34:32.207Z,10.40
2018-12-31T21:37:01.732Z,10.40
2018-12-31T21:39:31.236Z,10.40
2018-12-31T21:42:00.808Z,10.40
2018-12-31T21:44:30.725Z,10.30
2018-12-31T21:47:00.211Z,10.30
2018-12-31T21:49:30.245Z,10.30
2018-12-31T21:52:00.767Z,10.30
2018-12-31T21:54:30.311Z,10.40
2018-12-31T21:57:00.779Z,10.30
2018-12-31T21:59:30.427Z,10.30
2018-12-31T22:01:59.946Z,10.30
2018-12-31T22:04:29.775Z,10.20
2018-12-31T22:06:59.351Z,10.20
2018-12-31T22:09:29.742Z,10.20
2018-12-31T22:11:59.791Z,10.20
2018-12-31T22:14:29.376Z,10.20
2018-12-31T22:16:58.807Z,10.20
2018-12-31T22:19:28.492Z,10.20
2018-12-31T22:21:58.556Z,10.20
2018-12-31T22:24:27.999Z,10.20
2018-12-31T22:26:57.548Z,10.20
2018-12-31T22:29:27.052Z,10.20
2018-12-31T22:31:57.132Z,10.20
2018-12-31T22:34:26.778Z,10.20
2018-12-31T22:36:56.660Z,10.20
2018-12-31T22:39:26.079Z,10.20
2018-12-31T22:41:55.849Z,10.10
2018-12-31T22:44:25.609Z,10.00
2018-12-31T22:46:55.477Z,10.00
2018-12-31T22:49:24.999Z,10.00
2018-12-31T22:51:54.524Z,10.00
2018-12-31T22:54:24.030Z,10.10
2018-12-31T22:56:54.271Z,10.00
2018-12-31T22:59:23.996Z,10.00
2018-12-31T23:01:53.492Z,10.00
2018-12-31T23:04:23.373Z,9.90
2018-12-31T23:06:55.472Z,10.00
2018-12-31T23:09:25.427Z,10.00
2018-12-31T23:11:55.478Z,10.00
2018-12-31T23:14:25.064Z,10.00
2018-12-31T23:16:55.834Z,10.10
2018-12-31T23:19:25.519Z,10.10
2018-12-31T23:21:55.143Z,10.00
2018-12-31T23:24:24.995Z,10.00
2018-12-31T23:26:54.983Z,9.90
2018-12-31T23:29:24.856Z,10.00
2018-12-31T23:31:54.465Z,10.00
2018-12-31T23:34:24.552Z,9.90
2018-12-31T23:36:54.043Z,9.90
2018-12-31T23:39:23.745Z,9.90
2018-12-31T23:41:53.347Z,9.90
2018-12-31T23:44:23.092Z,10.00
2018-12-31T23:46:52.639Z,10.00
2018-12-31T23:49:41.880Z,10.00
2018-12-31T23:52:11.413Z,10.10
2018-12-31T23:54:42.341Z,10.00
2018-12-31T23:57:11.868Z,9.90
2018-12-31T23:59:41.396Z,9.90
